Latest Weather Observations for Esperance Airport

IDW60801

Issued at 11:35 am WST Friday 19 September 2014 (issued every 30 minutes, with the page automatically refreshed every 10 minutes)

About weather observations | Map of weather stations | Latest weather observations for WA | Other Formats
Station Details ID: 009542 Name: ESPERANCE AERO Lat: -33.68 Lon: 121.83 Height: 142.0 m
Data from the previous 72 hours. | See also: Recent months at Esperance Airport
Date/Time
WST
Temp
°C
App
Temp
°C
Dew
Point
Rel
Hum
%
Delta-T
°C
Wind Press
QNH
hPa
Press
MSL
hPa
Rain
since 9 am
mm
Dir
 
Spd
km/h
Gust
km/h
Spd
kts
Gust
kts
19/11:30am 20.1 16.7 13.6 66 3.7 SSW 24 37 13 20 1022.0 1022.0 0.0
19/11:00am 20.5 17.6 15.1 71 3.2 S 24 32 13 17 1022.1 1022.1 0.0
19/10:30am 19.6 16.1 13.3 67 3.6 S 24 30 13 16 1022.0 1022.0 0.0
19/10:00am 20.0 17.1 13.9 68 3.5 S 22 30 12 16 1021.8 1021.8 0.0
19/09:30am 19.8 16.5 14.0 69 3.4 S 24 33 13 18 1022.0 1022.0 0.0
19/09:00am 19.5 16.7 14.3 72 3.0 SSW 22 30 12 16 1022.1 1022.1 0.0
19/08:30am 18.5 15.9 14.8 79 2.2 SSW 22 30 12 16 1022.1 1022.1 0.0
19/08:00am 17.2 15.9 15.7 91 0.9 SW 17 24 9 13 1021.8 1021.8 0.0
19/07:30am 15.1 13.8 14.9 99 0.1 SW 15 19 8 10 1021.6 1021.6 0.0
19/07:13am 15.0 14.1 14.8 99 0.1 SW 13 17 7 9 1021.4 1021.4 0.0
19/07:00am 14.2 13.4 14.0 99 0.1 WSW 11 13 6 7 1021.2 1021.2 0.0
19/06:30am 12.8 11.1 12.6 99 0.1 W 13 15 7 8 1020.8 1020.8 0.0
19/06:00am 12.0 10.5 11.8 99 0.1 WNW 11 13 6 7 1020.0 1020.0 0.0
19/05:30am 12.5 10.8 12.3 99 0.1 WNW 13 15 7 8 1019.6 1019.6 0.0
19/05:23am 12.6 10.9 12.4 99 0.1 WNW 13 13 7 7 1019.5 1019.4 0.0
19/05:00am 12.6 11.3 12.4 99 0.1 WNW 11 15 6 8 1019.3 1019.2 0.0
19/04:38am 12.9 11.7 12.7 99 0.1 W 11 13 6 7 1019.2 1019.1 0.0
19/04:30am 13.5 12.5 13.3 99 0.1 W 11 15 6 8 1019.2 1019.1 0.0
19/04:09am 14.1 12.5 13.9 99 0.1 W 15 17 8 9 1018.9 1018.8 0.0
19/04:00am 14.2 12.6 14.0 99 0.1 W 15 17 8 9 1018.8 1018.7 0.0
19/03:30am 14.6 12.8 14.4 99 0.1 W 17 22 9 12 1018.6 1018.5 0.0
19/03:00am 14.0 12.7 13.8 99 0.1 WNW 13 20 7 11 1018.2 1018.1 0.0
19/02:39am 12.9 10.8 12.4 97 0.3 WNW 15 19 8 10 1018.1 1018.0 0.0
19/02:35am 12.8 10.6 12.0 95 0.4 WNW 15 19 8 10 1018.0 1017.9 0.0
19/02:30am 12.4 10.0 11.3 93 0.6 WNW 15 20 8 11 1018.0 1017.9 0.0
19/02:00am 14.2 10.4 9.2 72 2.6 WNW 19 26 10 14 1017.7 1017.6 0.0
19/01:30am 14.4 10.2 9.6 73 2.5 WNW 22 32 12 17 1017.4 1017.3 0.0
19/01:00am 14.6 10.1 10.2 75 2.3 N 24 32 13 17 1016.3 1016.3 0.0
19/12:30am 15.2 10.5 10.6 74 2.4 N 26 35 14 19 1016.2 1016.2 0.0
19/12:00am 15.6 10.9 10.8 73 2.6 N 26 33 14 18 1016.3 1016.3 0.0
 
Date/Time
WST
Temp
°C
App
Temp
°C
Dew
Point
Rel
Hum
%
Delta-T
°C
Wind Press
QNH
hPa
Press
MSL
hPa
Rain
since 9 am
mm
Dir
 
Spd
km/h
Gust
km/h
Spd
kts
Gust
kts
18/11:30pm 15.4 11.6 11.0 75 2.4 N 22 30 12 16 1016.3 1016.3 0.0
18/11:00pm 15.5 11.7 11.1 75 2.4 NNE 22 30 12 16 1016.1 1016.1 0.0
18/10:30pm 15.5 12.1 11.1 75 2.4 NNE 20 28 11 15 1016.5 1016.4 0.0
18/10:00pm 15.6 12.3 10.8 73 2.6 NNE 19 28 10 15 1016.8 1016.7 0.0
18/09:30pm 16.2 13.3 10.9 71 2.8 NNE 17 24 9 13 1016.7 1016.6 0.0
18/09:00pm 17.0 13.8 11.1 68 3.2 NE 19 26 10 14 1016.7 1016.6 0.0
18/08:30pm 17.9 15.1 10.0 60 4.2 NE 15 24 8 13 1016.8 1016.7 0.0
18/08:00pm 19.4 16.0 9.3 52 5.4 NE 17 26 9 14 1016.6 1016.5 0.0
18/07:30pm 19.6 15.9 9.5 52 5.4 NE 19 26 10 14 1016.1 1016.1 0.0
18/07:00pm 19.5 17.0 9.7 53 5.2 ENE 13 20 7 11 1016.0 1016.0 0.0
18/06:30pm 20.1 17.6 9.7 51 5.6 ENE 13 19 7 10 1015.7 1015.7 0.0
18/06:00pm 20.8 18.9 10.6 52 5.6 E 11 13 6 7 1015.5 1015.5 0.0
18/05:30pm 22.5 20.7 10.9 48 6.5 E 11 15 6 8 1015.5 1015.5 0.0
18/05:00pm 24.0 21.8 10.7 43 7.4 ENE 13 20 7 11 1015.3 1015.3 0.0
18/04:30pm 25.1 22.7 10.2 39 8.3 ENE 13 20 7 11 1015.1 1015.1 0.0
18/04:00pm 25.1 22.2 9.8 38 8.5 ENE 15 24 8 13 1015.1 1015.1 0.0
18/03:30pm 25.4 22.5 9.7 37 8.7 ENE 15 24 8 13 1015.0 1015.0 0.0
18/03:00pm 25.8 22.2 10.0 37 8.8 E 19 26 10 14 1015.0 1015.0 0.0
18/02:30pm 25.5 22.2 9.7 37 8.7 NE 17 28 9 15 1015.3 1015.3 0.0
18/02:00pm 25.3 21.9 9.2 36 8.8 NE 17 30 9 16 1015.6 1015.6 0.0
18/01:30pm 25.5 22.5 10.5 39 8.4 NE 17 26 9 14 1016.1 1016.1 0.0
18/01:00pm 24.9 21.5 10.4 40 8.1 NE 19 30 10 16 1016.5 1016.4 0.0
18/12:30pm 24.4 20.4 9.2 38 8.3 NE 20 30 11 16 1016.9 1016.8 0.0
18/12:00pm 24.3 21.1 11.3 44 7.3 NNE 19 30 10 16 1017.4 1017.3 0.0
18/11:30am 23.8 20.4 11.2 45 7.1 NNE 20 32 11 17 1017.9 1017.8 0.0
18/11:00am 22.7 19.1 10.5 46 6.7 NNE 20 32 11 17 1018.3 1018.2 0.0
18/10:30am 21.6 17.7 10.7 50 6.0 NNE 22 32 12 17 1018.7 1018.6 0.0
18/10:00am 20.9 16.4 11.3 54 5.3 NNE 26 37 14 20 1018.9 1018.8 0.0
18/09:30am 20.2 16.8 11.1 56 5.0 NNE 20 30 11 16 1019.1 1019.0 0.0
18/09:00am 18.9 14.7 11.2 61 4.2 N 24 33 13 18 1019.4 1019.3 0.0
18/08:30am 17.3 12.7 10.9 66 3.5 N 26 35 14 19 1019.6 1019.6 0.0
18/08:00am 15.8 10.6 10.1 69 3.0 N 28 37 15 20 1019.6 1019.6 0.0
18/07:30am 14.5 9.2 9.9 74 2.4 N 28 39 15 21 1019.6 1019.6 0.0
18/07:00am 13.5 8.9 9.6 77 2.0 N 24 35 13 19 1019.5 1019.4 0.0
18/06:30am 12.8 7.8 9.6 81 1.6 N 26 33 14 18 1019.4 1019.3 0.0
18/06:00am 12.4 7.8 9.6 83 1.4 NNE 24 32 13 17 1019.1 1019.0 0.0
18/05:30am 12.4 7.8 9.6 83 1.4 N 24 33 13 18 1018.8 1018.7 0.0
18/05:00am 12.6 8.4 9.6 82 1.5 NNE 22 30 12 16 1018.6 1018.5 0.0
18/04:30am 13.1 8.5 9.5 79 1.8 NNE 24 33 13 18 1018.5 1018.4 0.0
18/04:00am 13.6 8.6 9.5 76 2.1 NNE 26 35 14 19 1018.5 1018.4 0.0
18/03:30am 13.7 9.1 9.7 77 2.1 NNE 24 33 13 18 1018.4 1018.3 0.0
18/03:00am 14.5 9.6 9.9 74 2.4 NNE 26 35 14 19 1018.3 1018.2 0.0
18/02:30am 14.4 9.5 9.8 74 2.4 NNE 26 37 14 20 1018.5 1018.4 0.0
18/02:00am 14.7 10.0 10.7 77 2.1 NNE 26 37 14 20 1018.4 1018.3 0.0
18/01:30am 14.3 9.2 10.7 79 1.9 NNE 28 37 15 20 1018.6 1018.5 0.0
18/01:00am 14.4 9.3 10.6 78 2.0 NNE 28 37 15 20 1018.5 1018.4 0.0
18/12:30am 13.8 8.8 11.1 84 1.4 NNE 28 41 15 22 1018.7 1018.6 0.0
18/12:00am 13.8 8.9 11.3 85 1.3 NNE 28 39 15 21 1019.2 1019.1 0.0
 
Date/Time
WST
Temp
°C
App
Temp
°C
Dew
Point
Rel
Hum
%
Delta-T
°C
Wind Press
QNH
hPa
Press
MSL
hPa
Rain
since 9 am
mm
Dir
 
Spd
km/h
Gust
km/h
Spd
kts
Gust
kts
17/11:30pm 14.2 9.9 10.8 80 1.8 NE 24 33 13 18 1019.5 1019.4 0.0
17/11:00pm 14.3 9.9 10.3 77 2.1 NE 24 39 13 21 1019.6 1019.6 0.0
17/10:30pm 15.2 10.7 10.2 72 2.6 ENE 24 32 13 17 1020.4 1020.4 0.0
17/10:00pm 15.3 11.4 10.7 74 2.4 ESE 22 28 12 15 1021.0 1021.0 0.0
17/09:30pm 16.3 13.3 10.6 69 3.0 ESE 17 24 9 13 1020.8 1020.8 0.0
17/09:00pm 16.5 14.4 11.0 70 3.0 E 13 20 7 11 1020.8 1020.8 0.0
17/08:30pm 17.0 14.9 11.1 68 3.2 ENE 13 17 7 9 1020.2 1020.2 0.0
17/08:00pm 17.0 13.6 11.3 69 3.1 NE 20 28 11 15 1019.6 1019.6 0.0
17/07:30pm 17.9 13.9 10.5 62 4.0 NE 22 33 12 18 1018.7 1018.6 0.0
17/07:00pm 17.4 14.6 11.2 67 3.4 E 17 20 9 11 1018.5 1018.4 0.0
17/06:30pm 18.2 14.7 11.0 63 3.9 E 20 30 11 16 1018.3 1018.2 0.0
17/06:00pm 18.7 16.1 12.0 65 3.7 E 17 28 9 15 1018.2 1018.1 0.0
17/05:30pm 19.1 16.5 12.1 64 3.9 E 17 22 9 12 1017.8 1017.7 0.0
17/05:00pm 19.6 16.2 12.4 63 4.0 ESE 22 28 12 15 1017.2 1017.1 0.0
17/04:30pm 19.9 17.3 13.1 65 3.9 ESE 19 24 10 13 1017.4 1017.3 0.0
17/04:00pm 22.8 21.0 9.6 43 7.2 ENE 9 13 5 7 1017.2 1017.1 0.0
17/03:30pm 22.7 20.9 9.5 43 7.2 NNE 9 17 5 9 1017.3 1017.2 0.0
17/03:00pm 23.3 21.2 9.7 42 7.4 NNE 11 19 6 10 1017.3 1017.2 0.0
17/02:30pm 24.1 21.1 7.7 35 8.7 NNE 13 22 7 12 1017.4 1017.3 0.0
17/02:00pm 24.2 21.7 9.8 40 7.9 NNE 13 19 7 10 1017.7 1017.6 0.0
17/01:30pm 23.8 20.8 9.4 40 7.9 NNE 15 24 8 13 1018.0 1017.9 0.0
17/01:00pm 23.8 20.8 9.4 40 7.8 NNE 15 24 8 13 1018.5 1018.4 0.0
17/12:30pm 23.9 21.2 10.2 42 7.6 NNE 15 20 8 11 1018.9 1018.8 0.0
17/12:00pm 22.7 19.6 10.2 45 6.9 NNE 17 24 9 13 1019.2 1019.1 0.0
17/11:30am 22.3 19.0 10.8 48 6.4 NNE 19 28 10 15 1019.7 1019.7 0.0
17/11:00am 21.3 18.1 11.1 52 5.6 NNE 19 32 10 17 1020.2 1020.2 0.0
17/10:30am 19.8 15.8 10.5 55 5.1 NNE 22 28 12 15 1020.7 1020.7 0.0
17/10:00am 19.1 15.7 11.2 60 4.3 NNE 20 32 11 17 1021.0 1021.0 0.0
17/09:30am 17.5 13.1 10.4 63 3.8 NNE 24 37 13 20 1021.1 1021.1 0.0
17/09:00am 16.0 11.6 10.3 69 3.0 NNE 24 41 13 22 1021.2 1021.2 0.0
17/08:30am 14.4 9.9 10.2 76 2.2 NNE 24 39 13 21 1021.2 1021.2 0.0
17/08:00am 13.0 8.9 10.2 83 1.5 NE 22 33 12 18 1021.3 1021.3 0.0
17/07:30am 11.9 8.2 10.0 88 1.0 NE 20 35 11 19 1021.2 1021.2 0.0
17/07:00am 10.9 7.3 9.8 93 0.6 ENE 19 30 10 16 1021.0 1021.0 0.0
17/06:30am 10.2 7.7 9.6 96 0.3 ENE 13 20 7 11 1021.0 1021.0 0.0
17/06:00am 9.6 6.2 9.3 98 0.1 ENE 17 22 9 12 1020.9 1020.9 0.0
17/05:30am 9.3 7.0 9.0 98 0.1 ENE 11 17 6 9 1020.8 1020.8 0.0
17/05:00am 9.7 7.5 9.2 97 0.2 ENE 11 15 6 8 1020.8 1020.8 0.0
17/04:56am 9.9 7.7 9.4 97 0.3 ENE 11 17 6 9 1020.8 1020.8 0.0
17/04:30am 10.1 8.0 9.8 98 0.2 NE 11 19 6 10 1020.8 1020.8 0.0
17/04:00am 9.8 7.3 9.7 99 0.1 ENE 13 22 7 12 1020.6 1020.6 0.0
17/03:30am 9.1 7.2 9.0 99 0.0 ENE 9 17 5 9 1020.8 1020.8 0.0
17/03:13am 8.9 6.2 8.8 99 0.0 NE 13 20 7 11 1020.7 1020.7 0.0
17/03:00am 8.2 4.9 8.1 99 0.0 ENE 15 22 8 12 1020.7 1020.7 0.0
17/02:43am 7.9 4.9 7.5 97 0.2 ENE 13 19 7 10 1020.9 1020.9 0.0
17/02:42am 7.8 4.7 7.2 96 0.3 ENE 13 19 7 10 1020.9 1020.9 0.0
17/02:30am 7.3 4.0 6.4 94 0.4 E 13 17 7 9 1020.8 1020.8 0.0
17/02:00am 7.7 4.8 6.6 93 0.5 E 11 17 6 9 1020.9 1020.9 0.0
17/01:30am 8.1 5.2 6.6 90 0.7 ENE 11 17 6 9 1021.0 1021.0 0.0
17/01:00am 8.9 5.7 7.0 88 0.9 ENE 13 20 7 11 1021.2 1021.2 0.0
17/12:30am 8.7 5.1 6.8 88 0.9 ENE 15 20 8 11 1021.3 1021.3 0.0
17/12:00am 8.5 5.2 6.6 88 0.9 ENE 13 20 7 11 1021.5 1021.5 0.0
 
Date/Time
WST
Temp
°C
App
Temp
°C
Dew
Point
Rel
Hum
%
Delta-T
°C
Wind Press
QNH
hPa
Press
MSL
hPa
Rain
since 9 am
mm
Dir
 
Spd
km/h
Gust
km/h
Spd
kts
Gust
kts
16/11:30pm 8.8 5.6 6.9 88 0.9 ENE 13 20 7 11 1021.6 1021.6 0.0
16/11:00pm 9.3 5.7 6.9 85 1.1 ENE 15 22 8 12 1021.7 1021.7 0.0
16/10:30pm 9.6 6.1 7.0 84 1.2 ENE 15 20 8 11 1021.8 1021.8 0.0
16/10:00pm 10.3 6.4 7.0 80 1.6 E 17 22 9 12 1022.1 1022.1 0.0
16/09:30pm 10.5 6.6 7.2 80 1.6 E 17 22 9 12 1022.3 1022.3 0.0
16/09:00pm 10.9 7.1 7.4 79 1.7 E 17 24 9 13 1022.3 1022.3 0.0
16/08:30pm 11.4 7.7 8.1 80 1.6 E 17 22 9 12 1022.2 1022.2 0.0
16/08:00pm 11.7 8.1 8.2 79 1.7 E 17 22 9 12 1022.2 1022.2 0.0
16/07:30pm 11.8 8.2 8.5 80 1.6 E 17 22 9 12 1022.0 1022.0 0.0
16/07:00pm 11.6 7.7 8.8 83 1.4 ESE 19 24 10 13 1021.9 1021.9 0.0
16/06:30pm 12.0 7.9 8.8 81 1.6 ESE 20 24 11 13 1021.5 1021.5 0.0
16/06:00pm 13.1 8.7 9.0 76 2.1 ESE 22 28 12 15 1021.3 1021.3 0.0
16/05:30pm 14.1 10.8 9.7 75 2.3 SE 17 20 9 11 1021.2 1021.2 0.0
16/05:00pm 14.9 10.3 9.7 71 2.7 SE 24 30 13 16 1021.0 1021.0 0.0
16/04:30pm 16.1 12.0 10.2 68 3.1 SSE 22 30 12 16 1020.9 1020.9 0.0
16/04:00pm 16.5 12.3 9.7 64 3.6 SE 22 28 12 15 1020.7 1020.7 0.0
16/03:30pm 17.2 13.4 9.9 62 3.9 SE 20 28 11 15 1020.8 1020.8 0.0
16/03:00pm 17.7 13.7 10.6 63 3.8 SE 22 28 12 15 1020.9 1020.9 0.0
16/02:30pm 17.6 13.5 10.0 61 4.0 SSE 22 28 12 15 1021.3 1021.3 0.0
16/02:00pm 17.7 13.7 10.3 62 4.0 SE 22 30 12 16 1021.4 1021.4 0.0
16/01:30pm 17.8 14.2 9.9 60 4.2 SE 19 24 10 13 1021.4 1021.4 0.0
16/01:00pm 17.9 14.4 8.7 55 4.8 E 17 24 9 13 1021.6 1021.6 0.0
16/12:30pm 18.7 16.8 10.5 59 4.4 SE 11 17 6 9 1021.8 1021.8 0.0
16/12:00pm 18.0 16.2 9.6 58 4.4 E 9 15 5 8 1022.5 1022.5 0.0

Other Formats:

Comma delimited format used in spreadsheet applications
http://www.bom.gov.au/fwo/IDW60801/IDW60801.95638.axf

JavaScript Object Notation format (JSON) in row-major order
http://www.bom.gov.au/fwo/IDW60801/IDW60801.95638.json